William J. Weber — WDC6537 — position and weather

sailwx.info

Track history (hours):
 
Tides and Currents Weather Stations Pressure Air Temp Water Temp Dewpoint Dewpoint Depression Visibility Wind Speed Wind Dir Waves Ship Positions

William J. Weber

More information available from US FCC via Universal Licensing System and Coast Guard Vessel Documentation Center.

Last reported at 2014-Sep-02 23:30 UTC. Time now 2014-Sep-21 02:00 UTC.
Position N 29°28' W 094°51'.
Warning: this ship's position is 18 days out of date.

Length 23 m.

Type: Towing. MMSI: 367057640.

Date/timePositionNaut miles runAvg speedWind from/ knotsBaromVisibWave heightAir tempDewpointWater temp
2014-Sep-02 23:30N 29°28' W 094°51'8 8.0
2014-Sep-02 22:33N 29°34' W 094°56'8 7.6
2014-Sep-02 21:33N 29°41' W 094°59'6 5.5
2014-Sep-02 20:33N 29°45' W 095°04'2 1.5
2014-Sep-02 19:33N 29°46' W 095°05'1 0.5
2014-Sep-02 18:29N 29°46' W 095°05'1 0.6
2014-Sep-02 17:33N 29°46' W 095°05'1 0.7
2014-Sep-02 16:28N 29°46' W 095°06'0 0.0
2014-Sep-02 15:33N 29°46' W 095°06'0 0.0
2014-Sep-02 14:32N 29°46' W 095°06'0 0.0
2014-Sep-02 13:30N 29°46' W 095°06'0 0.0
2014-Sep-02 12:32N 29°46' W 095°06'0 0.0
2014-Sep-02 11:33N 29°46' W 095°06'1 0.7
2014-Sep-02 10:33N 29°46' W 095°05'0 0.0
2014-Sep-02 00:24N 29°46' W 095°05'1 0.3
2014-Sep-01 21:09N 29°45' W 095°06'0 0.1
2014-Sep-01 20:31N 29°45' W 095°06'1 0.3
2014-Sep-01 17:24N 29°46' W 095°07'1 1.1
2014-Sep-01 16:30N 29°45' W 095°06'0 0.1
2014-Sep-01 15:33N 29°45' W 095°06'0 0.0
2014-Sep-01 14:33N 29°45' W 095°06'0 0.0
2014-Sep-01 13:33N 29°45' W 095°06'0 0.0
2014-Sep-01 12:33N 29°45' W 095°06'0 0.0
2014-Sep-01 11:33N 29°45' W 095°06'0 0.0
2014-Sep-01 10:33N 29°45' W 095°06'0 0.0
2014-Sep-01 09:33N 29°45' W 095°06'0 0.0
2014-Sep-01 08:33N 29°45' W 095°06'0 0.0
2014-Sep-01 07:33N 29°45' W 095°06'0 0.0
2014-Sep-01 06:33N 29°45' W 095°06'0 0.0
2014-Sep-01 05:23N 29°45' W 095°06'0 0.0
2014-Sep-01 04:33N 29°45' W 095°06'0 0.0
2014-Sep-01 03:32N 29°45' W 095°06'0 0.0
2014-Sep-01 02:14N 29°45' W 095°06'1 1.5
2014-Sep-01 01:32N 29°46' W 095°05'1 0.7
2014-Sep-01 00:33N 29°45' W 095°06'1 0.2
2014-Aug-31 20:24N 29°46' W 095°06'0 0.0
2014-Aug-31 19:30N 29°46' W 095°06'0 0.0
2014-Aug-31 18:20N 29°46' W 095°06'0 0.0
2014-Aug-31 15:29N 29°46' W 095°06'0 0.0
2014-Aug-31 14:26N 29°46' W 095°06'0 0.0
2014-Aug-31 13:29N 29°46' W 095°06'1 0.7
2014-Aug-31 12:29N 29°46' W 095°05'0 0.0
2014-Aug-31 10:24N 29°46' W 095°05'0 0.0
2014-Aug-31 09:24N 29°46' W 095°05'0 0.0
2014-Aug-31 08:33N 29°46' W 095°05'0 0.0
2014-Aug-31 07:24N 29°46' W 095°05'0 0.0
2014-Aug-31 06:11N 29°46' W 095°05'0 0.0
2014-Aug-31 05:28N 29°46' W 095°05'0 0.0
2014-Aug-31 04:33N 29°46' W 095°05'0 0.0
2014-Aug-31 03:29N 29°46' W 095°05'0 0.0
2014-Aug-31 02:30N 29°46' W 095°05'0 0.0
2014-Aug-31 01:33N 29°46' W 095°05'0 0.0
2014-Aug-31 00:30N 29°46' W 095°05'0 0.0
2014-Aug-30 23:33N 29°46' W 095°05'0 0.0
2014-Aug-30 22:32N 29°46' W 095°05'0 0.0
2014-Aug-30 21:33N 29°46' W 095°05'0 0.0
2014-Aug-30 20:30N 29°46' W 095°05'0 0.0
2014-Aug-30 19:25N 29°46' W 095°05'0 0.0
2014-Aug-30 18:27N 29°46' W 095°05'1 0.8
2014-Aug-30 17:33N 29°46' W 095°06'0 0.0
2014-Aug-30 16:33N 29°46' W 095°06'0 0.0
2014-Aug-30 15:33N 29°46' W 095°06'0 0.0
2014-Aug-30 14:33N 29°46' W 095°06'0 0.0
2014-Aug-30 13:33N 29°46' W 095°06'1 0.6
2014-Aug-30 12:28N 29°46' W 095°05'1 0.8
2014-Aug-30 11:29N 29°46' W 095°05'0 0.0
2014-Aug-30 10:33N 29°46' W 095°05'0 0.0
2014-Aug-30 09:28N 29°46' W 095°05'0 0.0
2014-Aug-30 08:33N 29°46' W 095°05'0 0.0
2014-Aug-30 07:33N 29°46' W 095°05'0 0.0
2014-Aug-30 06:33N 29°46' W 095°05'0 0.0
2014-Aug-30 05:29N 29°46' W 095°05'0 0.0
2014-Aug-30 04:33N 29°46' W 095°05'0 0.0
2014-Aug-30 03:33N 29°46' W 095°05'0 0.0
2014-Aug-30 02:33N 29°46' W 095°05'0 0.0
2014-Aug-30 01:32N 29°46' W 095°05'0 0.0
2014-Aug-30 00:33N 29°46' W 095°05'0 0.0
2014-Aug-29 23:33N 29°46' W 095°05'0 0.0
2014-Aug-29 22:33N 29°46' W 095°05'0 0.0
2014-Aug-29 21:32N 29°46' W 095°05'1 0.8
2014-Aug-29 20:32N 29°46' W 095°05'0 0.0
2014-Aug-29 19:27N 29°46' W 095°05'1 0.8
2014-Aug-29 18:33N 29°46' W 095°06'0 0.0
2014-Aug-29 17:33N 29°46' W 095°06'0 0.0
2014-Aug-29 16:33N 29°46' W 095°06'0 0.0
2014-Aug-29 13:13N 29°46' W 095°06'1 1.0
2014-Aug-29 12:32N 29°46' W 095°05'0 0.0
2014-Aug-29 11:33N 29°46' W 095°05'0 0.0
2014-Aug-29 10:33N 29°46' W 095°05'1 0.2
2014-Aug-29 07:25N 29°45' W 095°06'1 0.7
2014-Aug-29 06:33N 29°46' W 095°05'0 0.0
2014-Aug-29 05:24N 29°46' W 095°05'0 0.0
2014-Aug-29 04:28N 29°46' W 095°05'1 0.8
2014-Aug-29 03:33N 29°46' W 095°06'1 0.7
2014-Aug-29 02:31N 29°46' W 095°05'3 3.0
2014-Aug-29 01:33N 29°44' W 095°03'7 6.5
2014-Aug-29 00:33N 29°39' W 094°58'8 7.6
2014-Aug-28 23:33N 29°32' W 094°54'  
Track history (hours):
 
Tides and Currents Weather Stations Pressure Air Temp Water Temp Dewpoint Dewpoint Depression Visibility Wind Speed Wind Dir Waves Ship Positions

William J. Weber

More information available from US FCC via Universal Licensing System and Coast Guard Vessel Documentation Center.

Last reported at 2014-Sep-02 23:30 UTC. Time now 2014-Sep-21 02:00 UTC.
Position N 29°28' W 094°51'.
Warning: this ship's position is 18 days out of date.

Length 23 m.

Type: Towing. MMSI: 367057640.

Date/timePositionNaut miles runAvg speedWind from/ knotsBaromVisibWave heightAir tempDewpointWater temp
2014-Sep-02 23:30N 29°28' W 094°51'8 8.0
2014-Sep-02 22:33N 29°34' W 094°56'8 7.6
2014-Sep-02 21:33N 29°41' W 094°59'6 5.5
2014-Sep-02 20:33N 29°45' W 095°04'2 1.5
2014-Sep-02 19:33N 29°46' W 095°05'1 0.5
2014-Sep-02 18:29N 29°46' W 095°05'1 0.6
2014-Sep-02 17:33N 29°46' W 095°05'1 0.7
2014-Sep-02 16:28N 29°46' W 095°06'0 0.0
2014-Sep-02 15:33N 29°46' W 095°06'0 0.0
2014-Sep-02 14:32N 29°46' W 095°06'0 0.0
2014-Sep-02 13:30N 29°46' W 095°06'0 0.0
2014-Sep-02 12:32N 29°46' W 095°06'0 0.0
2014-Sep-02 11:33N 29°46' W 095°06'1 0.7
2014-Sep-02 10:33N 29°46' W 095°05'0 0.0
2014-Sep-02 00:24N 29°46' W 095°05'1 0.3
2014-Sep-01 21:09N 29°45' W 095°06'0 0.1
2014-Sep-01 20:31N 29°45' W 095°06'1 0.3
2014-Sep-01 17:24N 29°46' W 095°07'1 1.1
2014-Sep-01 16:30N 29°45' W 095°06'0 0.1
2014-Sep-01 15:33N 29°45' W 095°06'0 0.0
2014-Sep-01 14:33N 29°45' W 095°06'0 0.0
2014-Sep-01 13:33N 29°45' W 095°06'0 0.0
2014-Sep-01 12:33N 29°45' W 095°06'0 0.0
2014-Sep-01 11:33N 29°45' W 095°06'0 0.0
2014-Sep-01 10:33N 29°45' W 095°06'0 0.0
2014-Sep-01 09:33N 29°45' W 095°06'0 0.0
2014-Sep-01 08:33N 29°45' W 095°06'0 0.0
2014-Sep-01 07:33N 29°45' W 095°06'0 0.0
2014-Sep-01 06:33N 29°45' W 095°06'0 0.0
2014-Sep-01 05:23N 29°45' W 095°06'0 0.0
2014-Sep-01 04:33N 29°45' W 095°06'0 0.0
2014-Sep-01 03:32N 29°45' W 095°06'0 0.0
2014-Sep-01 02:14N 29°45' W 095°06'1 1.5
2014-Sep-01 01:32N 29°46' W 095°05'1 0.7
2014-Sep-01 00:33N 29°45' W 095°06'1 0.2
2014-Aug-31 20:24N 29°46' W 095°06'0 0.0
2014-Aug-31 19:30N 29°46' W 095°06'0 0.0
2014-Aug-31 18:20N 29°46' W 095°06'0 0.0
2014-Aug-31 15:29N 29°46' W 095°06'0 0.0
2014-Aug-31 14:26N 29°46' W 095°06'0 0.0
2014-Aug-31 13:29N 29°46' W 095°06'1 0.7
2014-Aug-31 12:29N 29°46' W 095°05'0 0.0
2014-Aug-31 10:24N 29°46' W 095°05'0 0.0
2014-Aug-31 09:24N 29°46' W 095°05'0 0.0
2014-Aug-31 08:33N 29°46' W 095°05'0 0.0
2014-Aug-31 07:24N 29°46' W 095°05'0 0.0
2014-Aug-31 06:11N 29°46' W 095°05'0 0.0
2014-Aug-31 05:28N 29°46' W 095°05'0 0.0
2014-Aug-31 04:33N 29°46' W 095°05'0 0.0
2014-Aug-31 03:29N 29°46' W 095°05'0 0.0
2014-Aug-31 02:30N 29°46' W 095°05'0 0.0
2014-Aug-31 01:33N 29°46' W 095°05'0 0.0
2014-Aug-31 00:30N 29°46' W 095°05'0 0.0
2014-Aug-30 23:33N 29°46' W 095°05'0 0.0
2014-Aug-30 22:32N 29°46' W 095°05'0 0.0
2014-Aug-30 21:33N 29°46' W 095°05'0 0.0
2014-Aug-30 20:30N 29°46' W 095°05'0 0.0
2014-Aug-30 19:25N 29°46' W 095°05'0 0.0
2014-Aug-30 18:27N 29°46' W 095°05'1 0.8
2014-Aug-30 17:33N 29°46' W 095°06'0 0.0
2014-Aug-30 16:33N 29°46' W 095°06'0 0.0
2014-Aug-30 15:33N 29°46' W 095°06'0 0.0
2014-Aug-30 14:33N 29°46' W 095°06'0 0.0
2014-Aug-30 13:33N 29°46' W 095°06'1 0.6
2014-Aug-30 12:28N 29°46' W 095°05'1 0.8
2014-Aug-30 11:29N 29°46' W 095°05'0 0.0
2014-Aug-30 10:33N 29°46' W 095°05'0 0.0
2014-Aug-30 09:28N 29°46' W 095°05'0 0.0
2014-Aug-30 08:33N 29°46' W 095°05'0 0.0
2014-Aug-30 07:33N 29°46' W 095°05'0 0.0
2014-Aug-30 06:33N 29°46' W 095°05'0 0.0
2014-Aug-30 05:29N 29°46' W 095°05'0 0.0
2014-Aug-30 04:33N 29°46' W 095°05'0 0.0
2014-Aug-30 03:33N 29°46' W 095°05'0 0.0
2014-Aug-30 02:33N 29°46' W 095°05'0 0.0
2014-Aug-30 01:32N 29°46' W 095°05'0 0.0
2014-Aug-30 00:33N 29°46' W 095°05'0 0.0
2014-Aug-29 23:33N 29°46' W 095°05'0 0.0
2014-Aug-29 22:33N 29°46' W 095°05'0 0.0
2014-Aug-29 21:32N 29°46' W 095°05'1 0.8
2014-Aug-29 20:32N 29°46' W 095°05'0 0.0
2014-Aug-29 19:27N 29°46' W 095°05'1 0.8
2014-Aug-29 18:33N 29°46' W 095°06'0 0.0
2014-Aug-29 17:33N 29°46' W 095°06'0 0.0
2014-Aug-29 16:33N 29°46' W 095°06'0 0.0
2014-Aug-29 13:13N 29°46' W 095°06'1 1.0
2014-Aug-29 12:32N 29°46' W 095°05'0 0.0
2014-Aug-29 11:33N 29°46' W 095°05'0 0.0
2014-Aug-29 10:33N 29°46' W 095°05'1 0.2
2014-Aug-29 07:25N 29°45' W 095°06'1 0.7
2014-Aug-29 06:33N 29°46' W 095°05'0 0.0
2014-Aug-29 05:24N 29°46' W 095°05'0 0.0
2014-Aug-29 04:28N 29°46' W 095°05'1 0.8
2014-Aug-29 03:33N 29°46' W 095°06'1 0.7
2014-Aug-29 02:31N 29°46' W 095°05'3 3.0
2014-Aug-29 01:33N 29°44' W 095°03'7 6.5
2014-Aug-29 00:33N 29°39' W 094°58'8 7.6
2014-Aug-28 23:33N 29°32' W 094°54'  

Dump ship's entire track history